createdAt,value
2019-05-22T00:01:18.166Z,10.83
2019-05-22T00:03:56.567Z,12.37
2019-05-22T00:06:30.077Z,19.57
2019-05-22T00:08:59.172Z,16.03
2019-05-22T00:11:29.997Z,18.83
2019-05-22T00:14:00.632Z,15.37
2019-05-22T00:16:31.612Z,15.00
2019-05-22T00:19:01.387Z,15.77
2019-05-22T00:21:30.464Z,18.70
2019-05-22T00:24:00.184Z,18.00
2019-05-22T00:26:29.263Z,14.80
2019-05-22T00:28:59.433Z,13.17
2019-05-22T00:31:30.202Z,19.20
2019-05-22T00:34:00.210Z,21.00
2019-05-22T00:36:31.350Z,18.93
2019-05-22T00:39:00.745Z,17.33
2019-05-22T00:41:32.711Z,17.60
2019-05-22T00:44:01.915Z,17.90
2019-05-22T00:46:31.145Z,15.30
2019-05-22T00:49:01.861Z,15.07
2019-05-22T00:51:45.644Z,14.87
2019-05-22T00:54:21.886Z,13.20
2019-05-22T00:56:56.825Z,12.53
2019-05-22T00:59:31.796Z,14.80
2019-05-22T01:02:03.009Z,11.40
2019-05-22T01:04:38.945Z,14.33
2019-05-22T01:07:18.905Z,16.17
2019-05-22T01:09:51.963Z,18.23
2019-05-22T01:12:30.637Z,16.93
2019-05-22T01:15:06.399Z,17.73
2019-05-22T01:17:36.772Z,17.90
2019-05-22T01:20:09.957Z,16.63
2019-05-22T01:22:41.803Z,12.53
2019-05-22T01:25:14.439Z,12.83
2019-05-22T01:27:44.038Z,18.47
2019-05-22T01:30:19.517Z,19.53
2019-05-22T01:32:51.819Z,17.83
2019-05-22T01:35:29.275Z,20.37
2019-05-22T01:37:59.887Z,23.00
2019-05-22T01:40:41.545Z,21.20
2019-05-22T01:43:14.158Z,18.33
2019-05-22T01:45:52.501Z,20.70
2019-05-22T01:48:29.754Z,19.83
2019-05-22T01:50:58.855Z,20.30
2019-05-22T01:53:38.580Z,17.87
2019-05-22T01:56:11.395Z,17.93
2019-05-22T01:58:42.419Z,16.03
2019-05-22T02:01:18.678Z,17.17
2019-05-22T02:03:47.973Z,15.53
2019-05-22T02:06:19.522Z,20.13
2019-05-22T02:08:53.241Z,19.53
2019-05-22T02:11:25.546Z,18.07
2019-05-22T02:14:03.812Z,18.87
2019-05-22T02:16:34.389Z,20.33
2019-05-22T02:19:05.146Z,17.40
2019-05-22T02:21:35.789Z,19.07
2019-05-22T02:24:07.371Z,17.83
2019-05-22T02:26:37.059Z,16.47
2019-05-22T02:29:08.708Z,19.53
2019-05-22T02:31:39.447Z,18.67
2019-05-22T02:34:09.397Z,16.57
2019-05-22T02:36:40.702Z,15.87
2019-05-22T02:39:15.719Z,18.07
2019-05-22T02:41:48.449Z,14.30
2019-05-22T02:44:17.787Z,16.93
2019-05-22T02:46:47.229Z,20.50
2019-05-22T02:49:17.427Z,21.47
2019-05-22T02:51:47.881Z,15.03
2019-05-22T02:54:17.003Z,21.93
2019-05-22T02:56:46.189Z,20.47
2019-05-22T02:59:17.526Z,21.07
2019-05-22T03:01:47.013Z,21.77
2019-05-22T03:04:17.328Z,22.13
2019-05-22T03:06:46.413Z,19.67
2019-05-22T03:09:19.698Z,20.07
2019-05-22T03:11:59.191Z,19.83
2019-05-22T03:14:31.197Z,18.77
2019-05-22T03:17:03.032Z,20.63
2019-05-22T03:19:41.225Z,18.57
2019-05-22T03:22:24.359Z,17.83
2019-05-22T03:24:55.497Z,17.90
2019-05-22T03:27:38.827Z,18.23
2019-05-22T03:30:12.794Z,18.50
2019-05-22T03:32:44.550Z,20.17
2019-05-22T03:35:14.266Z,17.27
2019-05-22T03:37:43.746Z,18.07
2019-05-22T03:40:14.103Z,18.57
2019-05-22T03:42:43.911Z,18.80
2019-05-22T03:45:14.552Z,18.50
2019-05-22T03:47:43.974Z,18.37
2019-05-22T03:50:13.905Z,17.00
2019-05-22T03:52:43.562Z,16.63
2019-05-22T03:55:14.211Z,18.73
2019-05-22T03:57:44.586Z,18.03
2019-05-22T04:00:17.512Z,16.57
2019-05-22T04:02:49.740Z,14.93
2019-05-22T04:05:20.983Z,19.60
2019-05-22T04:07:52.679Z,16.17
2019-05-22T04:10:23.977Z,18.93
2019-05-22T04:12:53.731Z,19.17
2019-05-22T04:19:17.381Z,16.53
2019-05-22T04:21:47.330Z,15.23
2019-05-22T04:24:16.833Z,18.80
2019-05-22T04:26:46.935Z,17.13
2019-05-22T04:29:16.019Z,20.07
2019-05-22T04:31:56.789Z,17.17
2019-05-22T04:34:26.491Z,15.73
2019-05-22T04:36:55.680Z,17.70
2019-05-22T04:39:27.477Z,17.23
2019-05-22T04:41:58.970Z,17.40
2019-05-22T04:44:29.301Z,17.97
2019-05-22T04:46:58.390Z,16.80
2019-05-22T04:49:27.510Z,14.87
2019-05-22T04:51:56.600Z,16.90
2019-05-22T04:54:26.152Z,18.10
2019-05-22T04:56:55.422Z,16.10
2019-05-22T04:59:24.520Z,18.23
2019-05-22T05:01:53.970Z,16.87
2019-05-22T05:04:24.249Z,16.07
2019-05-22T05:06:53.783Z,15.50
2019-05-22T05:09:22.987Z,16.10
2019-05-22T05:11:52.357Z,15.27
2019-05-22T05:14:21.481Z,15.00
2019-05-22T05:16:50.623Z,14.87
2019-05-22T05:19:20.470Z,14.70
2019-05-22T05:21:49.540Z,13.50
2019-05-22T05:24:18.866Z,13.40
2019-05-22T05:26:48.084Z,15.03
2019-05-22T05:29:28.592Z,13.93
2019-05-22T05:31:59.009Z,12.87
2019-05-22T05:34:38.320Z,15.90
2019-05-22T05:37:09.757Z,14.53
2019-05-22T05:40:26.330Z,15.47
2019-05-22T05:42:55.601Z,12.77
2019-05-22T05:45:26.689Z,13.07
2019-05-22T05:47:57.863Z,11.63
2019-05-22T05:50:38.943Z,13.90
2019-05-22T05:52:59.920Z,13.83
2019-05-22T05:55:31.057Z,14.20
2019-05-22T05:58:28.632Z,12.30
2019-05-22T06:01:02.923Z,14.83
2019-05-22T06:03:39.269Z,13.83
2019-05-22T06:06:55.116Z,11.13
2019-05-22T06:09:27.377Z,11.17
2019-05-22T06:11:57.916Z,13.50
2019-05-22T06:14:29.206Z,11.13
2019-05-22T06:17:54.727Z,12.27
2019-05-22T06:20:24.119Z,13.00
2019-05-22T06:23:40.809Z,12.00
2019-05-22T06:26:12.227Z,12.83
2019-05-22T06:28:41.995Z,13.17
2019-05-22T06:31:16.537Z,9.40
2019-05-22T06:33:45.806Z,12.90
2019-05-22T06:36:20.194Z,13.97
2019-05-22T06:39:08.639Z,11.80
2019-05-22T06:41:39.273Z,12.17
2019-05-22T06:44:40.760Z,13.80
2019-05-22T06:47:17.608Z,14.20
2019-05-22T06:49:52.847Z,13.87
2019-05-22T06:52:22.651Z,13.03
2019-05-22T06:54:52.332Z,12.80
2019-05-22T06:57:34.959Z,11.00
2019-05-22T07:00:13.843Z,14.50
2019-05-22T07:02:39.620Z,12.33
2019-05-22T07:05:09.872Z,13.03
2019-05-22T07:07:39.449Z,12.80
2019-05-22T07:10:12.932Z,13.10
2019-05-22T07:12:43.798Z,12.83
2019-05-22T07:15:23.144Z,12.23
2019-05-22T07:17:58.860Z,12.33
2019-05-22T07:20:32.466Z,13.30
2019-05-22T07:23:04.081Z,13.17
2019-05-22T07:25:35.448Z,12.93
2019-05-22T07:28:04.788Z,13.40
2019-05-22T07:30:34.025Z,14.77
2019-05-22T07:33:03.231Z,13.93
2019-05-22T07:35:46.186Z,12.73
2019-05-22T07:38:03.752Z,14.57
2019-05-22T07:40:33.815Z,14.00
2019-05-22T07:43:03.022Z,12.67
2019-05-22T07:45:34.245Z,13.97
2019-05-22T07:48:04.762Z,12.87
2019-05-22T07:50:36.400Z,13.57
2019-05-22T07:53:07.375Z,14.53
2019-05-22T07:55:37.052Z,13.87
2019-05-22T07:58:11.981Z,12.50
2019-05-22T08:00:47.838Z,11.70
2019-05-22T08:03:17.012Z,12.80
2019-05-22T08:05:50.110Z,12.70
2019-05-22T08:08:21.120Z,11.50
2019-05-22T08:10:50.569Z,11.83
2019-05-22T08:13:19.974Z,13.33
2019-05-22T08:15:59.619Z,11.50
2019-05-22T08:18:41.712Z,13.47
2019-05-22T08:24:20.956Z,12.33
2019-05-22T08:26:54.464Z,11.13
2019-05-22T08:29:22.121Z,11.77
2019-05-22T08:31:53.465Z,10.53
2019-05-22T08:34:24.126Z,11.97
2019-05-22T08:36:54.117Z,11.07
2019-05-22T08:39:28.112Z,11.60
2019-05-22T08:41:58.059Z,10.57
2019-05-22T08:44:28.678Z,11.80
2019-05-22T08:46:59.658Z,10.83
2019-05-22T08:49:29.938Z,9.90
2019-05-22T08:51:59.752Z,9.27
2019-05-22T08:54:30.433Z,9.30
2019-05-22T08:57:00.375Z,9.77
2019-05-22T08:59:37.366Z,10.53
2019-05-22T09:02:12.595Z,9.33
2019-05-22T09:04:49.535Z,9.67
2019-05-22T09:07:19.168Z,8.87
2019-05-22T09:09:48.340Z,8.33
2019-05-22T09:12:17.425Z,8.17
2019-05-22T09:14:46.509Z,8.13
2019-05-22T09:17:15.865Z,9.50
2019-05-22T09:19:45.934Z,8.80
2019-05-22T09:22:15.575Z,9.30
2019-05-22T09:24:45.608Z,9.23
2019-05-22T09:27:18.514Z,9.53
2019-05-22T09:29:47.656Z,10.20
2019-05-22T09:32:17.106Z,9.73
2019-05-22T09:34:46.288Z,8.60
2019-05-22T09:37:15.386Z,8.90
2019-05-22T09:39:44.835Z,10.63
2019-05-22T09:42:14.834Z,10.67
2019-05-22T09:44:45.135Z,9.70
2019-05-22T09:47:15.133Z,9.70
2019-05-22T09:49:45.865Z,8.57
2019-05-22T09:52:14.940Z,9.13
2019-05-22T09:54:44.009Z,8.70
2019-05-22T09:57:16.449Z,9.10
2019-05-22T09:59:45.522Z,7.03
2019-05-22T10:02:14.775Z,8.10
2019-05-22T10:04:44.025Z,7.87
2019-05-22T10:07:13.120Z,7.63
2019-05-22T10:09:45.017Z,8.03
2019-05-22T10:12:14.197Z,7.90
2019-05-22T10:14:43.351Z,7.47
2019-05-22T10:17:22.111Z,7.70
2019-05-22T10:19:51.330Z,7.20
2019-05-22T10:22:21.196Z,7.60
2019-05-22T10:25:14.035Z,7.30
2019-05-22T10:27:27.639Z,7.80
2019-05-22T10:29:57.087Z,7.73
2019-05-22T10:32:32.222Z,7.67
2019-05-22T10:34:59.794Z,7.20
2019-05-22T10:37:29.468Z,7.80
2019-05-22T10:39:59.208Z,6.93
2019-05-22T10:42:28.365Z,8.70
2019-05-22T10:44:57.524Z,7.63
2019-05-22T10:47:27.331Z,9.67
2019-05-22T10:49:56.436Z,8.07
2019-05-22T10:52:27.413Z,8.20
2019-05-22T10:54:56.587Z,8.17
2019-05-22T10:57:26.397Z,8.43
2019-05-22T10:59:55.462Z,8.80
2019-05-22T11:02:25.317Z,8.30
2019-05-22T11:04:54.737Z,9.13
2019-05-22T11:07:25.681Z,9.43
2019-05-22T11:09:55.287Z,10.50
2019-05-22T11:12:27.425Z,12.37
2019-05-22T11:14:57.393Z,10.33
2019-05-22T11:17:26.975Z,9.47
2019-05-22T11:19:56.205Z,11.33
2019-05-22T11:22:26.262Z,10.33
2019-05-22T11:24:55.363Z,10.60
2019-05-22T11:27:25.155Z,11.27
2019-05-22T11:29:54.551Z,11.13
2019-05-22T11:32:29.870Z,9.27
2019-05-22T11:34:59.938Z,10.23
2019-05-22T11:37:30.923Z,9.10
2019-05-22T11:40:01.557Z,9.30
2019-05-22T11:42:46.031Z,9.40
2019-05-22T11:45:14.705Z,9.27
2019-05-22T11:47:49.391Z,9.37
2019-05-22T11:50:22.737Z,9.47
2019-05-22T11:52:52.002Z,12.37
2019-05-22T11:55:21.778Z,10.23
2019-05-22T11:57:51.821Z,10.17
2019-05-22T12:00:25.794Z,9.63
2019-05-22T12:02:56.414Z,10.57
2019-05-22T12:05:26.458Z,10.40
2019-05-22T12:07:55.623Z,9.70
2019-05-22T12:10:26.580Z,9.13
2019-05-22T12:12:56.122Z,7.73
2019-05-22T12:15:29.730Z,7.67
2019-05-22T12:17:59.643Z,7.60
2019-05-22T12:20:30.211Z,7.43
2019-05-22T12:22:59.773Z,8.30
2019-05-22T12:25:30.776Z,8.67
2019-05-22T12:28:00.050Z,8.03
2019-05-22T12:30:29.640Z,8.00
2019-05-22T12:33:00.037Z,7.13
2019-05-22T12:35:29.214Z,8.97
2019-05-22T12:37:59.263Z,9.07
2019-05-22T12:40:33.667Z,9.73
2019-05-22T12:43:04.120Z,11.63
2019-05-22T12:45:34.313Z,10.37
2019-05-22T12:48:06.990Z,9.60
2019-05-22T12:50:36.711Z,8.37
2019-05-22T12:53:08.029Z,8.87
2019-05-22T12:55:37.166Z,9.50
2019-05-22T12:58:07.060Z,9.80
2019-05-22T13:00:39.530Z,10.90
2019-05-22T13:03:09.079Z,8.77
2019-05-22T13:05:51.938Z,8.73
2019-05-22T13:08:21.821Z,8.47
2019-05-22T13:10:52.408Z,8.90
2019-05-22T13:13:22.049Z,8.73
2019-05-22T13:15:54.243Z,8.53
2019-05-22T13:18:25.680Z,8.00
2019-05-22T13:20:55.576Z,6.43
2019-05-22T13:23:28.894Z,7.20
2019-05-22T13:25:58.770Z,7.40
2019-05-22T13:28:30.422Z,7.10
2019-05-22T13:31:01.131Z,5.90
2019-05-22T13:33:31.575Z,5.50
2019-05-22T13:36:01.761Z,6.77
2019-05-22T13:38:30.835Z,6.40
2019-05-22T13:41:00.094Z,7.33
2019-05-22T13:43:29.892Z,6.57
2019-05-22T13:45:59.477Z,6.77
2019-05-22T13:48:28.788Z,6.30
2019-05-22T13:51:00.043Z,7.10
2019-05-22T13:53:30.083Z,7.20
2019-05-22T13:55:59.270Z,7.30
2019-05-22T13:58:29.716Z,8.40
2019-05-22T14:00:59.009Z,7.47
2019-05-22T14:03:28.538Z,7.90
2019-05-22T14:05:58.237Z,6.70
2019-05-22T14:08:28.168Z,6.60
2019-05-22T14:10:58.275Z,6.70
2019-05-22T14:13:27.812Z,5.80
2019-05-22T14:15:57.869Z,6.50
2019-05-22T14:18:27.498Z,6.23
2019-05-22T14:20:56.569Z,6.97
2019-05-22T14:23:25.635Z,6.50
2019-05-22T14:25:54.743Z,6.87
2019-05-22T14:28:25.422Z,5.90
2019-05-22T14:30:54.940Z,6.80
2019-05-22T14:33:28.060Z,6.30
2019-05-22T14:35:57.852Z,7.07
2019-05-22T14:38:27.470Z,7.40
2019-05-22T14:40:57.471Z,6.23
2019-05-22T14:43:26.919Z,6.90
2019-05-22T14:45:55.997Z,6.60
2019-05-22T14:48:25.097Z,7.07
2019-05-22T14:50:54.305Z,6.10
2019-05-22T14:53:23.355Z,7.90
2019-05-22T14:55:52.958Z,6.70
2019-05-22T14:58:23.435Z,6.77
2019-05-22T15:00:53.185Z,7.03
2019-05-22T15:03:22.985Z,6.63
2019-05-22T15:05:53.237Z,6.47
2019-05-22T15:08:22.324Z,6.90
2019-05-22T15:10:51.597Z,6.60
2019-05-22T15:13:21.515Z,6.53
2019-05-22T15:15:50.597Z,5.60
2019-05-22T15:18:19.704Z,6.53
2019-05-22T15:21:15.171Z,6.80
2019-05-22T15:23:44.941Z,6.13
2019-05-22T15:26:14.715Z,5.73
2019-05-22T15:28:43.979Z,5.43
2019-05-22T15:31:13.540Z,4.60
2019-05-22T15:33:43.132Z,4.87
2019-05-22T15:36:15.896Z,5.20
2019-05-22T15:38:46.195Z,5.43
2019-05-22T15:41:15.451Z,5.40
2019-05-22T15:43:52.534Z,4.90
2019-05-22T15:46:19.964Z,4.47
2019-05-22T15:48:50.706Z,4.87
2019-05-22T15:51:24.389Z,4.80
2019-05-22T15:53:58.006Z,5.23
2019-05-22T15:56:30.462Z,5.63
2019-05-22T15:59:01.009Z,5.30
2019-05-22T16:01:33.405Z,5.03
2019-05-22T16:04:02.693Z,5.03
2019-05-22T16:06:32.442Z,5.30
2019-05-22T16:09:04.135Z,5.37
2019-05-22T16:11:34.182Z,5.57
2019-05-22T16:14:03.781Z,4.67
2019-05-22T16:16:36.089Z,4.80
2019-05-22T16:19:09.009Z,4.27
2019-05-22T16:21:42.048Z,5.23
2019-05-22T16:24:11.953Z,5.97
2019-05-22T16:26:42.323Z,4.80
2019-05-22T16:29:12.723Z,6.13
2019-05-22T16:31:44.002Z,5.13
2019-05-22T16:34:14.679Z,6.00
2019-05-22T16:36:44.847Z,5.30
2019-05-22T16:39:17.140Z,5.40
2019-05-22T16:41:47.547Z,5.97
2019-05-22T16:44:16.880Z,6.10
2019-05-22T16:46:46.912Z,5.57
2019-05-22T16:49:17.009Z,4.97
2019-05-22T16:51:47.294Z,4.63
2019-05-22T16:54:20.301Z,4.63
2019-05-22T16:56:48.243Z,5.27
2019-05-22T16:59:18.781Z,4.67
2019-05-22T17:01:58.746Z,6.47
2019-05-22T17:04:19.505Z,5.00
2019-05-22T17:06:48.566Z,5.43
2019-05-22T17:09:18.931Z,6.17
2019-05-22T17:11:48.405Z,6.40
2019-05-22T17:14:18.995Z,5.10
2019-05-22T17:16:49.663Z,5.83
2019-05-22T17:19:27.210Z,6.20
2019-05-22T17:21:50.253Z,6.43
2019-05-22T17:24:21.371Z,6.07
2019-05-22T17:26:52.496Z,6.20
2019-05-22T17:29:21.600Z,5.20
2019-05-22T17:31:51.627Z,5.47
2019-05-22T17:34:36.561Z,5.97
2019-05-22T17:37:14.465Z,5.60
2019-05-22T17:39:46.730Z,4.80
2019-05-22T17:42:18.375Z,5.13
2019-05-22T17:44:49.685Z,4.63
2019-05-22T17:47:21.826Z,4.13
2019-05-22T17:49:51.703Z,3.70
2019-05-22T17:52:23.241Z,4.17
2019-05-22T17:54:54.149Z,3.10
2019-05-22T17:57:25.315Z,3.90
2019-05-22T17:59:55.825Z,3.67
2019-05-22T18:02:29.510Z,3.83
2019-05-22T18:04:58.599Z,3.13
2019-05-22T18:07:28.765Z,3.53
2019-05-22T18:09:57.836Z,4.10
2019-05-22T18:12:27.635Z,3.90
2019-05-22T18:14:57.002Z,3.40
2019-05-22T18:17:26.651Z,3.90
2019-05-22T18:19:55.943Z,3.40
2019-05-22T18:22:25.008Z,3.87
2019-05-22T18:24:54.060Z,3.40
2019-05-22T18:27:25.226Z,2.97
2019-05-22T18:29:54.199Z,3.33
2019-05-22T18:32:23.381Z,3.37
2019-05-22T18:34:52.457Z,3.30
2019-05-22T18:37:21.538Z,3.67
2019-05-22T18:39:51.095Z,2.93
2019-05-22T18:42:20.355Z,4.47
2019-05-22T18:44:49.349Z,3.67
2019-05-22T18:47:18.659Z,2.30
2019-05-22T18:49:47.729Z,2.47
2019-05-22T18:52:16.917Z,2.10
2019-05-22T18:54:45.979Z,2.23
2019-05-22T18:57:15.838Z,2.60
2019-05-22T18:59:45.432Z,2.13
2019-05-22T19:02:14.853Z,2.70
2019-05-22T19:04:44.003Z,2.87
2019-05-22T19:07:13.374Z,2.53
2019-05-22T19:09:42.477Z,3.27
2019-05-22T19:12:11.662Z,2.40
2019-05-22T19:14:40.811Z,2.97
2019-05-22T19:17:10.156Z,2.17
2019-05-22T19:19:39.125Z,2.13
2019-05-22T19:22:08.508Z,1.73
2019-05-22T19:24:37.628Z,2.03
2019-05-22T19:27:06.709Z,3.13
2019-05-22T19:29:35.778Z,2.47
2019-05-22T19:32:04.963Z,2.20
2019-05-22T19:34:34.026Z,1.80
2019-05-22T19:37:03.115Z,2.33
2019-05-22T19:39:32.182Z,2.10
2019-05-22T19:42:05.015Z,1.57
2019-05-22T19:44:32.243Z,1.87
2019-05-22T19:47:01.531Z,1.63
2019-05-22T19:49:31.191Z,1.60
2019-05-22T19:52:00.373Z,1.40
2019-05-22T19:54:29.638Z,1.33
2019-05-22T19:56:58.744Z,1.40
2019-05-22T19:59:27.868Z,1.20
2019-05-22T20:01:57.439Z,1.00
2019-05-22T20:04:26.999Z,1.03
2019-05-22T20:06:56.859Z,1.10
2019-05-22T20:09:27.148Z,0.90
2019-05-22T20:11:56.235Z,1.20
2019-05-22T20:14:26.088Z,1.00
2019-05-22T20:16:55.223Z,0.90
2019-05-22T20:19:24.589Z,1.10
2019-05-22T20:21:53.961Z,0.97
2019-05-22T20:24:23.022Z,1.10
2019-05-22T20:26:52.387Z,1.30
2019-05-22T20:29:22.049Z,0.90
2019-05-22T20:31:51.421Z,1.00
2019-05-22T20:34:20.605Z,1.10
2019-05-22T20:36:49.783Z,0.97
2019-05-22T20:39:20.023Z,0.90
2019-05-22T20:41:49.148Z,1.00
2019-05-22T20:44:19.622Z,1.07
2019-05-22T20:46:50.949Z,1.17
2019-05-22T20:49:20.041Z,1.23
2019-05-22T20:51:49.114Z,1.00
2019-05-22T20:54:18.505Z,1.10
2019-05-22T20:56:50.598Z,1.20
2019-05-22T20:59:21.341Z,1.00
2019-05-22T21:01:50.402Z,1.00
2019-05-22T21:04:20.453Z,1.10
2019-05-22T21:06:59.890Z,0.90
2019-05-22T21:09:28.155Z,1.00
2019-05-22T21:11:58.715Z,0.87
2019-05-22T21:14:28.687Z,1.10
2019-05-22T21:16:57.763Z,1.13
2019-05-22T21:19:29.669Z,1.00
2019-05-22T21:21:59.631Z,0.90
2019-05-22T21:24:28.820Z,1.00
2019-05-22T21:26:57.896Z,1.33
2019-05-22T21:29:27.549Z,1.00
2019-05-22T21:31:56.617Z,1.10
2019-05-22T21:34:26.064Z,0.90
2019-05-22T21:36:55.239Z,1.20
2019-05-22T21:39:24.416Z,1.00
2019-05-22T21:41:53.885Z,0.80
2019-05-22T21:44:23.279Z,0.93
2019-05-22T21:46:52.729Z,0.90
2019-05-22T21:49:23.479Z,0.90
2019-05-22T21:51:52.552Z,1.00
2019-05-22T21:54:21.734Z,1.10
2019-05-22T21:56:51.179Z,0.90
2019-05-22T21:59:20.283Z,1.00
2019-05-22T22:01:53.885Z,1.00
2019-05-22T22:04:31.385Z,0.90
2019-05-22T22:07:01.818Z,1.00
2019-05-22T22:09:32.561Z,0.83
2019-05-22T22:12:02.298Z,0.80
2019-05-22T22:14:32.358Z,0.90
2019-05-22T22:17:02.406Z,1.10
2019-05-22T22:19:32.772Z,0.90
2019-05-22T22:22:02.712Z,0.90
2019-05-22T22:24:32.392Z,1.00
2019-05-22T22:27:01.655Z,0.90
2019-05-22T22:29:31.898Z,1.00
2019-05-22T22:32:01.172Z,1.27
2019-05-22T22:34:47.462Z,1.00
2019-05-22T22:37:17.538Z,1.10
2019-05-22T22:39:51.995Z,1.00
2019-05-22T22:42:25.099Z,1.00
2019-05-22T22:44:55.726Z,1.07
2019-05-22T22:47:37.023Z,1.10
2019-05-22T22:50:08.118Z,1.00
2019-05-22T22:52:39.058Z,1.10
2019-05-22T22:55:10.983Z,1.10
2019-05-22T22:57:41.058Z,1.00
2019-05-22T23:00:13.067Z,0.93
2019-05-22T23:02:43.837Z,1.10
2019-05-22T23:05:13.051Z,0.80
2019-05-22T23:07:43.409Z,1.10
2019-05-22T23:10:14.652Z,1.10
2019-05-22T23:12:43.707Z,1.10
2019-05-22T23:15:18.305Z,1.00
2019-05-22T23:17:46.637Z,1.00
2019-05-22T23:20:14.125Z,0.90
2019-05-22T23:22:41.593Z,1.10
2019-05-22T23:25:10.800Z,0.90
2019-05-22T23:27:40.502Z,1.07
2019-05-22T23:30:10.854Z,1.00
2019-05-22T23:32:42.480Z,0.90
2019-05-22T23:35:13.032Z,1.07
2019-05-22T23:37:43.213Z,0.90
2019-05-22T23:40:14.326Z,1.10
2019-05-22T23:42:44.293Z,1.00
2019-05-22T23:45:16.875Z,1.03
2019-05-22T23:48:17.416Z,0.90
2019-05-22T23:50:48.361Z,1.03
2019-05-22T23:53:18.520Z,1.00
2019-05-22T23:55:48.788Z,0.90
2019-05-22T23:58:20.137Z,1.00
